Time;durP1;ratioP1;P1;durP2;ratioP2;P2;SDS_P1;SDS_P2;PMS_P1;PMS_P2;Temp;Humidity;BMP_temperature;BMP_pressure;BME280_temperature;BME280_humidity;BME280_pressure;Samples;Min_cycle;Max_cycle;Signal;HPM_P1;HPM_P2
2023/09/06 00:00:43;;;;;;;3.53;2.90;;;;;;;17.84;100.00;101750.09;4992700;28;20044;-96
2023/09/06 00:03:10;;;;;;;3.80;3.40;;;;;;;17.85;100.00;101754.41;4972954;28;20033;-96
2023/09/06 00:05:41;;;;;;;6.95;3.22;;;;;;;17.87;100.00;101752.22;4980794;28;20015;-96
2023/09/06 00:08:12;;;;;;;5.20;3.22;;;;;;;17.83;100.00;101754.69;5000272;28;20026;-95
2023/09/06 00:10:39;;;;;;;4.60;3.67;;;;;;;17.79;100.00;101747.41;4987463;28;20019;-96
2023/09/06 00:13:09;;;;;;;4.40;3.33;;;;;;;17.79;100.00;101747.41;4981186;28;20014;-96
2023/09/06 00:15:36;;;;;;;6.00;3.20;;;;;;;17.76;100.00;101761.53;5013003;28;20045;-96
2023/09/06 00:18:03;;;;;;;5.33;3.57;;;;;;;17.63;100.00;101734.00;4989323;28;20362;-96
2023/09/06 00:20:30;;;;;;;6.80;3.25;;;;;;;17.66;100.00;101746.97;4999531;28;20037;-96
2023/09/06 00:22:58;;;;;;;6.65;3.25;;;;;;;17.67;100.00;101740.47;5000048;28;20025;-96
2023/09/06 00:25:25;;;;;;;3.83;3.35;;;;;;;17.55;100.00;101726.47;4999042;28;20015;-96
2023/09/06 00:27:51;;;;;;;5.00;3.30;;;;;;;17.54;100.00;101731.06;4988086;28;20084;-95
2023/09/06 00:30:20;;;;;;;4.63;3.65;;;;;;;17.54;100.00;101731.06;4974193;28;20035;-96
2023/09/06 00:32:46;;;;;;;5.43;3.70;;;;;;;17.52;100.00;101741.38;4981679;28;20490;-96
2023/09/06 00:35:12;;;;;;;5.20;3.40;;;;;;;17.50;100.00;101731.94;4991798;28;20278;-96
2023/09/06 00:37:40;;;;;;;5.40;3.50;;;;;;;17.48;100.00;101726.00;4974099;28;20042;-96
2023/09/06 00:40:19;;;;;;;4.93;3.70;;;;;;;17.44;100.00;101727.63;4984573;28;20042;-96
2023/09/06 00:43:01;;;;;;;7.20;3.60;;;;;;;17.45;100.00;101726.53;4986851;28;20108;-96
2023/09/06 00:45:42;;;;;;;6.38;3.60;;;;;;;17.48;100.00;101734.13;4983437;28;20104;-96
2023/09/06 00:48:11;;;;;;;6.53;3.30;;;;;;;17.45;100.00;101735.47;4980399;28;20074;-95
2023/09/06 00:50:37;;;;;;;5.00;3.08;;;;;;;17.44;100.00;101741.19;4986728;28;20033;-96
2023/09/06 00:53:06;;;;;;;5.40;3.00;;;;;;;17.34;100.00;101736.66;4977485;28;20102;-96
2023/09/06 00:55:33;;;;;;;4.57;3.15;;;;;;;17.29;100.00;101734.78;4977035;28;20108;-96
2023/09/06 00:57:58;;;;;;;4.80;3.20;;;;;;;17.27;100.00;101736.97;4974596;28;20027;-95
2023/09/06 01:00:24;;;;;;;8.70;3.40;;;;;;;17.25;100.00;101741.84;4974942;28;20450;-96
2023/09/06 01:02:50;;;;;;;6.32;3.35;;;;;;;17.22;100.00;101745.13;4983790;28;20035;-96
2023/09/06 01:05:17;;;;;;;7.20;3.63;;;;;;;17.19;100.00;101740.25;4984730;28;20031;-96
2023/09/06 01:07:57;;;;;;;7.10;3.50;;;;;;;17.16;100.00;101755.16;4985886;28;20057;-95
2023/09/06 01:10:22;;;;;;;5.93;3.55;;;;;;;17.14;100.00;101759.25;4986545;28;20505;-96
2023/09/06 01:12:48;;;;;;;4.33;3.50;;;;;;;17.09;100.00;101749.25;4979144;28;20027;-96
2023/09/06 01:15:13;;;;;;;5.00;3.13;;;;;;;16.99;100.00;101739.28;4962501;28;20024;-96
2023/09/06 01:17:43;;;;;;;8.23;3.55;;;;;;;17.03;100.00;101751.19;4987880;28;20015;-96
2023/09/06 01:20:15;;;;;;;5.77;3.50;;;;;;;17.00;100.00;101754.44;4990339;28;20115;-96
2023/09/06 01:22:46;;;;;;;7.50;3.08;;;;;;;16.89;100.00;101742.81;4984311;28;20077;-95
2023/09/06 01:25:12;;;;;;;5.15;3.10;;;;;;;16.88;100.00;101746.63;4998757;28;20102;-95
2023/09/06 01:27:39;;;;;;;3.40;3.10;;;;;;;16.90;100.00;101759.88;4978416;28;20125;-96
2023/09/06 01:32:35;;;;;;;4.78;3.03;;;;;;;16.79;100.00;101743.69;5071743;22;20058;-92
2023/09/06 01:35:01;;;;;;;7.83;3.30;;;;;;;16.79;100.00;101757.25;4995530;28;20033;-91
2023/09/06 01:37:26;;;;;;;4.73;3.10;;;;;;;16.74;100.00;101746.44;4991798;28;20088;-92
2023/09/06 01:39:51;;;;;;;5.20;3.20;;;;;;;16.63;100.00;101742.13;4995545;28;20027;-92
2023/09/06 01:42:22;;;;;;;6.00;3.50;;;;;;;16.62;100.00;101754.84;4995548;28;20034;-92
2023/09/06 01:44:48;;;;;;;5.47;3.45;;;;;;;16.58;100.00;101756.47;4993386;28;20096;-91
2023/09/06 01:47:13;;;;;;;5.93;3.80;;;;;;;16.59;100.00;101760.00;4992947;28;20031;-91
2023/09/06 01:49:44;;;;;;;4.18;3.00;;;;;;;16.56;100.00;101758.66;4995022;28;20036;-91
2023/09/06 01:52:10;;;;;;;5.53;3.65;;;;;;;16.56;100.00;101760.56;4993617;28;20497;-92
2023/09/06 01:54:35;;;;;;;9.00;3.80;;;;;;;16.51;100.00;101750.56;4992749;28;20030;-92
2023/09/06 01:57:01;;;;;;;5.07;3.33;;;;;;;16.54;100.00;101758.13;4993211;28;20034;-91
2023/09/06 01:59:26;;;;;;;5.28;3.55;;;;;;;16.49;100.00;101758.94;5005469;28;20034;-91
2023/09/06 02:01:54;;;;;;;6.63;4.10;;;;;;;16.45;100.00;101748.97;5011822;28;20014;-91
2023/09/06 02:04:20;;;;;;;8.18;4.20;;;;;;;16.46;100.00;101751.38;5012831;28;20030;-91
2023/09/06 02:06:45;;;;;;;5.90;3.87;;;;;;;16.43;100.00;101754.63;5013134;28;20117;-91
2023/09/06 02:09:10;;;;;;;7.67;4.57;;;;;;;16.47;100.00;101763.03;5016993;28;20069;-96
2023/09/06 02:11:37;;;;;;;8.20;4.77;;;;;;;16.41;100.00;101756.00;5018725;28;20038;-96
2023/09/06 02:14:02;;;;;;;5.95;4.82;;;;;;;16.33;100.00;101750.09;5018874;28;20017;-96
2023/09/06 02:16:28;;;;;;;6.37;4.93;;;;;;;16.38;100.00;101759.25;5017169;28;20032;-96
2023/09/06 02:18:58;;;;;;;7.40;4.85;;;;;;;16.30;100.00;101752.50;5014279;28;20022;-96
2023/09/06 02:21:25;;;;;;;6.43;4.53;;;;;;;16.29;100.00;101759.00;5014982;28;20081;-96
2023/09/06 02:23:51;;;;;;;7.68;5.15;;;;;;;16.30;100.00;101766.84;5015054;28;20031;-96
2023/09/06 02:26:16;;;;;;;7.77;5.17;;;;;;;16.26;100.00;101760.38;5008796;28;20046;-96
2023/09/06 02:28:41;;;;;;;7.60;5.63;;;;;;;16.24;100.00;101759.81;5007933;28;20417;-96
2023/09/06 02:31:07;;;;;;;6.20;5.10;;;;;;;16.28;100.00;101754.66;5008760;28;20049;-96
2023/09/06 02:33:32;;;;;;;6.00;5.20;;;;;;;16.32;100.00;101763.84;5006910;28;20030;-96
2023/09/06 02:35:58;;;;;;;10.25;5.45;;;;;;;16.26;100.00;101746.00;5010228;28;20050;-96
2023/09/06 02:38:23;;;;;;;7.33;5.07;;;;;;;16.31;100.00;101759.53;5010889;28;20023;-96
2023/09/06 02:40:50;;;;;;;7.10;5.20;;;;;;;16.23;100.00;101755.50;5009176;28;20029;-96
2023/09/06 02:43:17;;;;;;;8.02;4.90;;;;;;;16.24;100.00;101759.81;5007478;28;20533;-96
2023/09/06 02:45:49;;;;;;;7.20;5.10;;;;;;;16.25;100.00;101761.44;5009166;28;20074;-96
2023/09/06 02:48:16;;;;;;;8.80;5.00;;;;;;;16.20;100.00;101758.75;5010868;28;20216;-96
2023/09/06 02:50:44;;;;;;;9.20;5.13;;;;;;;16.07;100.00;101756.59;5015348;28;20284;-95
2023/09/06 02:53:20;;;;;;;11.40;4.90;;;;;;;16.10;100.00;101764.97;5016929;28;20057;-96
2023/09/06 02:55:51;;;;;;;7.25;4.70;;;;;;;16.02;100.00;101773.66;5012038;28;20536;-96
2023/09/06 02:58:24;;;;;;;7.20;4.97;;;;;;;15.97;100.00;101760.13;5009860;28;20014;-96
2023/09/06 03:00:55;;;;;;;9.13;4.57;;;;;;;15.88;100.00;101757.97;5008160;28;20042;-96
2023/09/06 03:03:21;;;;;;;6.85;4.22;;;;;;;15.89;100.00;101777.69;5006962;28;20034;-96
2023/09/06 03:05:47;;;;;;;8.60;4.80;;;;;;;15.83;100.00;101779.56;5004433;28;20037;-96
2023/09/06 03:08:14;;;;;;;5.35;4.47;;;;;;;15.77;100.00;101777.94;4999325;28;20019;-96
2023/09/06 03:10:40;;;;;;;7.55;4.18;;;;;;;15.70;100.00;101777.41;4998289;28;20030;-96
2023/09/06 03:13:09;;;;;;;5.88;4.20;;;;;;;15.66;100.00;101773.63;5000126;28;20033;-96
2023/09/06 03:15:34;;;;;;;4.80;4.18;;;;;;;15.62;100.00;101773.31;5001657;28;20129;-96
2023/09/06 03:18:04;;;;;;;8.13;4.73;;;;;;;15.60;100.00;101779.00;4998270;28;20107;-96
2023/09/06 03:20:34;;;;;;;6.47;4.40;;;;;;;15.55;100.00;101773.59;4986924;28;20023;-96
2023/09/06 03:23:20;;;;;;;5.90;4.50;;;;;;;15.52;100.00;101779.53;4968922;28;20031;-96
2023/09/06 03:25:48;;;;;;;8.32;4.20;;;;;;;15.45;100.00;101776.28;4990667;28;20042;-96
2023/09/06 03:28:15;;;;;;;5.57;4.32;;;;;;;15.39;100.00;101772.78;5006991;28;20054;-96
2023/09/06 03:30:48;;;;;;;5.75;4.13;;;;;;;15.36;100.00;101772.47;5011164;28;20045;-96
2023/09/06 03:33:13;;;;;;;7.45;4.70;;;;;;;15.30;100.00;101774.34;5006568;28;20038;-96
2023/09/06 03:35:39;;;;;;;4.50;4.10;;;;;;;15.30;100.00;101774.34;4998429;28;20487;-96
2023/09/06 03:38:08;;;;;;;7.50;4.68;;;;;;;15.26;100.00;101782.19;5001297;28;20026;-95
2023/09/06 03:40:37;;;;;;;4.80;4.30;;;;;;;15.24;100.00;101787.03;4998367;28;20482;-96
2023/09/06 03:43:15;;;;;;;4.97;4.00;;;;;;;15.21;100.00;101781.38;5001972;28;20286;-96
2023/09/06 03:45:58;;;;;;;8.15;4.65;;;;;;;15.15;100.00;101788.66;5001875;28;20062;-95
2023/09/06 03:48:26;;;;;;;7.70;4.95;;;;;;;15.11;100.00;101776.75;5007608;28;20026;-96
2023/09/06 03:50:55;;;;;;;6.50;4.88;;;;;;;15.11;100.00;101784.84;4987457;28;20027;-96
2023/09/06 03:53:37;;;;;;;5.75;4.70;;;;;;;15.03;100.00;101774.56;5009055;28;20045;-96
2023/09/06 03:56:05;;;;;;;5.97;4.45;;;;;;;14.99;100.00;101771.59;5018023;28;20014;-96
2023/09/06 03:58:31;;;;;;;5.68;4.50;;;;;;;14.99;100.00;101783.16;4992396;28;20036;-96
2023/09/06 04:00:59;;;;;;;8.40;4.75;;;;;;;15.02;100.00;101791.81;5006089;28;20046;-96
2023/09/06 04:03:26;;;;;;;5.13;4.63;;;;;;;14.92;100.00;101784.50;4999906;28;20034;-96
2023/09/06 04:05:52;;;;;;;8.07;4.80;;;;;;;14.86;100.00;101786.38;5062488;22;20043;-94
2023/09/06 04:08:18;;;;;;;9.73;4.80;;;;;;;14.81;100.00;101778.25;5110573;22;21322;-96
2023/09/06 04:10:44;;;;;;;16.20;4.77;;;;;;;14.64;100.00;101754.94;4968115;28;20038;-94
2023/09/06 04:13:12;;;;;;;4.90;4.40;;;;;;;14.77;100.00;101779.88;4954242;28;20301;-96
2023/09/06 04:15:40;;;;;;;6.60;4.38;;;;;;;14.84;100.00;101797.44;4953854;28;20038;-96
2023/09/06 04:18:09;;;;;;;7.53;4.20;;;;;;;14.49;100.00;101744.06;4959912;28;20027;-95
2023/09/06 04:23:13;;;;;;;6.03;4.65;;;;;;;14.51;100.00;101758.13;6008932;22;20476;-96
2023/09/06 04:35:59;;;;;;;6.37;4.77;;;;;;;14.56;100.00;101781.59;5824614;22;20051;-90
2023/09/06 04:38:24;;;;;;;8.33;5.03;;;;;;;14.65;100.00;101807.81;4972140;28;20803;-85
2023/09/06 04:40:51;;;;;;;5.57;4.90;;;;;;;14.59;100.00;101806.19;4962850;28;20482;-86
2023/09/06 04:43:18;;;;;;;6.55;4.70;;;;;;;14.54;100.00;101795.34;4972888;28;20111;-86
2023/09/06 04:45:43;;;;;;;6.75;4.97;;;;;;;14.45;100.00;101796.91;4972262;28;20027;-86
2023/09/06 04:48:11;;;;;;;9.90;5.47;;;;;;;14.53;100.00;101813.41;4970436;28;20053;-87
2023/09/06 04:50:40;;;;;;;8.20;5.28;;;;;;;14.49;100.00;101811.50;4970114;28;20106;-85
2023/09/06 04:53:07;;;;;;;8.45;5.30;;;;;;;14.50;100.00;101803.16;4972310;28;20041;-86
2023/09/06 04:55:35;;;;;;;7.28;5.50;;;;;;;14.46;100.00;101812.00;4970733;28;20031;-86
2023/09/06 04:58:10;;;;;;;7.07;5.35;;;;;;;14.41;100.00;101812.78;4970288;28;20034;-86
2023/09/06 05:00:39;;;;;;;9.00;5.20;;;;;;;14.48;100.00;101817.97;4953733;28;20457;-87
2023/09/06 05:03:08;;;;;;;6.43;5.00;;;;;;;14.47;100.00;101816.34;4970171;28;20026;-89
2023/09/06 05:05:35;;;;;;;7.13;5.30;;;;;;;14.47;100.00;101813.63;4969282;28;20733;-87
2023/09/06 05:08:00;;;;;;;9.10;5.45;;;;;;;14.49;100.00;101819.59;4971428;28;20504;-87
2023/09/06 05:10:26;;;;;;;8.02;5.55;;;;;;;14.44;100.00;101814.97;4971590;28;20114;-89
2023/09/06 05:12:51;;;;;;;7.50;5.87;;;;;;;14.53;100.00;101826.88;4971243;28;20102;-88
2023/09/06 05:15:16;;;;;;;9.47;5.40;;;;;;;14.52;100.00;101827.16;4977004;28;20061;-88
2023/09/06 05:17:42;;;;;;;7.50;5.77;;;;;;;14.52;100.00;101819.06;4970459;28;20030;-88
2023/09/06 05:20:27;;;;;;;8.10;6.67;;;;;;;14.58;100.00;101826.13;4974453;28;20061;-89
2023/09/06 05:22:54;;;;;;;8.32;6.32;;;;;;;14.60;100.00;101828.56;4971399;28;20026;-87
2023/09/06 05:25:20;;;;;;;7.10;6.32;;;;;;;14.68;100.00;101838.91;4972229;28;20077;-88
2023/09/06 05:27:45;;;;;;;7.33;6.13;;;;;;;14.68;100.00;101833.50;4971584;28;20051;-90
2023/09/06 05:30:11;;;;;;;7.22;6.00;;;;;;;14.71;100.00;101842.94;4971947;28;20089;-89
2023/09/06 05:32:37;;;;;;;8.37;6.47;;;;;;;14.74;100.00;101840.53;4971485;28;20526;-87
2023/09/06 05:35:03;;;;;;;9.52;6.38;;;;;;;14.77;100.00;101845.41;4972238;28;20026;-87
2023/09/06 05:37:29;;;;;;;8.00;6.38;;;;;;;14.79;100.00;101839.78;4969160;28;20018;-89
2023/09/06 05:39:55;;;;;;;7.37;6.10;;;;;;;14.79;100.00;101843.25;4979979;28;20034;-90
2023/09/06 05:42:20;;;;;;;8.75;6.00;;;;;;;14.78;100.00;101840.84;4971356;28;20034;-89
2023/09/06 05:44:46;;;;;;;12.23;6.50;;;;;;;14.79;100.00;101831.69;4967518;28;20418;-89
2023/09/06 05:47:11;;;;;;;8.37;6.57;;;;;;;14.88;100.00;101840.88;4968513;28;20661;-91
2023/09/06 05:49:36;;;;;;;8.23;6.00;;;;;;;14.95;100.00;101844.16;4970391;28;20488;-90
2023/09/06 05:52:02;;;;;;;9.60;6.33;;;;;;;14.99;100.00;101853.34;4971473;28;20019;-90
2023/09/06 05:54:28;;;;;;;8.73;6.88;;;;;;;15.03;100.00;101850.94;4986148;28;20039;-91
2023/09/06 05:56:53;;;;;;;9.23;6.83;;;;;;;15.01;100.00;101845.00;4969651;28;20398;-92
2023/09/06 05:59:19;;;;;;;15.00;7.33;;;;;;;15.11;100.00;101853.13;4970181;28;20492;-91
2023/09/06 06:01:44;;;;;;;8.73;6.60;;;;;;;15.13;100.00;101855.59;4965383;28;20313;-91
2023/09/06 06:04:11;;;;;;;8.50;7.00;;;;;;;15.17;100.00;101851.25;4970006;28;20534;-92
2023/09/06 06:06:36;;;;;;;9.63;7.17;;;;;;;15.25;100.00;101855.34;4970711;28;20038;-92
2023/09/06 06:09:03;;;;;;;7.30;6.30;;;;;;;15.30;100.00;101847.25;4969803;28;20298;-89
2023/09/06 06:11:29;;;;;;;9.52;7.22;;;;;;;15.43;100.00;101854.06;4969858;28;20427;-92
2023/09/06 06:13:55;;;;;;;7.37;6.63;;;;;;;15.55;100.00;101860.03;4970758;28;20069;-89
2023/09/06 06:16:20;;;;;;;9.25;6.75;;;;;;;15.66;100.00;101868.97;4969517;28;20019;-86
2023/09/06 06:18:48;;;;;;;9.07;7.03;;;;;;;15.71;100.00;101865.47;4970483;28;20182;-88
2023/09/06 06:21:13;;;;;;;8.32;6.82;;;;;;;15.81;100.00;101864.66;4967647;28;20134;-86
2023/09/06 06:23:43;;;;;;;10.88;7.47;;;;;;;15.93;100.00;101872.56;4971549;28;20113;-88
2023/09/06 06:26:09;;;;;;;8.68;7.15;;;;;;;16.03;100.00;101876.09;4970445;28;20033;-87
2023/09/06 06:28:34;;;;;;;8.40;6.47;;;;;;;16.12;100.00;101875.56;4970306;28;20042;-88
2023/09/06 06:30:59;;;;;;;12.20;6.40;;;;;;;16.25;100.00;101882.34;4968925;28;20047;-87
2023/09/06 06:33:25;;;;;;;10.57;6.90;;;;;;;16.34;100.00;101875.28;4971215;28;20023;-87
2023/09/06 06:35:51;;;;;;;9.43;6.90;;;;;;;16.43;100.00;101876.34;4961671;28;20039;-85
2023/09/06 06:38:16;;;;;;;8.97;6.80;;;;;;;16.57;100.00;101884.72;4967079;28;20031;-87
2023/09/06 06:40:41;;;;;;;11.63;6.77;;;;;;;16.64;100.00;101881.75;4970087;28;20433;-88
2023/09/06 06:43:07;;;;;;;13.77;6.97;;;;;;;16.64;100.00;101877.16;4984365;28;20298;-88
2023/09/06 06:45:32;;;;;;;7.03;6.07;;;;;;;16.79;100.00;101889.84;4969994;28;20031;-88
2023/09/06 06:47:57;;;;;;;7.80;6.57;;;;;;;16.87;100.00;101882.25;4970085;28;20058;-88
2023/09/06 06:50:23;;;;;;;12.30;7.10;;;;;;;16.98;100.00;101886.56;4970600;28;20125;-88
2023/09/06 06:52:49;;;;;;;10.15;6.30;;;;;;;17.05;100.00;101889.78;4970327;28;20019;-88
2023/09/06 06:55:15;;;;;;;9.10;6.10;;;;;;;17.17;100.00;101897.63;4970685;28;20030;-87
2023/09/06 06:57:40;;;;;;;9.93;6.93;;;;;;;17.31;100.00;101897.00;4969672;28;20281;-87
2023/09/06 07:00:11;;;;;;;12.30;6.35;;;;;;;17.37;100.00;101894.00;4966930;28;20378;-86
2023/09/06 07:02:37;;;;;;;8.77;6.13;;;;;;;17.49;100.00;101892.88;4970808;28;20407;-86
2023/09/06 07:05:04;;;;;;;9.93;6.73;;;;;;;17.55;100.00;101889.84;4973468;28;20027;-86
2023/09/06 07:07:29;;;;;;;8.47;6.60;;;;;;;17.64;100.00;101898.22;4974543;28;20282;-86
2023/09/06 07:09:55;;;;;;;8.30;6.35;;;;;;;17.75;100.00;101901.69;4971751;28;20624;-86
2023/09/06 07:12:20;;;;;;;8.53;6.23;;;;;;;17.89;100.00;101891.03;4972550;28;20138;-86
2023/09/06 07:14:45;;;;;;;9.40;6.10;;;;;;;17.94;100.00;101895.59;4974212;28;20027;-86
2023/09/06 07:17:11;;;;;;;7.37;5.73;;;;;;;18.00;100.00;101894.47;4974442;28;20434;-86
2023/09/06 07:19:36;;;;;;;8.43;5.85;;;;;;;18.14;100.00;101900.06;4974953;28;20470;-86
2023/09/06 07:22:03;;;;;;;9.47;5.10;;;;;;;18.23;100.00;101905.69;4972667;28;20548;-86
2023/09/06 07:24:28;;;;;;;7.88;5.75;;;;;;;18.37;100.00;101897.72;4973277;28;20031;-93
2023/09/06 07:26:54;;;;;;;9.70;5.90;;;;;;;18.47;100.00;101884.06;4968534;28;20421;-92
2023/09/06 07:29:19;;;;;;;8.43;5.53;;;;;;;18.68;100.00;101898.25;4975292;28;20034;-93
2023/09/06 07:31:45;;;;;;;7.20;5.25;;;;;;;18.77;100.00;101898.44;4973723;28;20037;-91
2023/09/06 07:34:10;;;;;;;7.37;5.57;;;;;;;18.92;100.00;101900.16;4973139;28;20089;-88
2023/09/06 07:36:35;;;;;;;8.07;4.90;;;;;;;19.00;100.00;101891.44;4965283;28;20386;-87
2023/09/06 07:39:01;;;;;;;5.90;4.97;;;;;;;19.08;100.00;101894.63;4957341;28;20486;-90
2023/09/06 07:41:27;;;;;;;9.67;5.30;;;;;;;19.14;100.00;101896.97;4972871;28;20073;-87
2023/09/06 07:43:52;;;;;;;7.77;5.50;;;;;;;19.24;100.00;101903.38;4970863;28;20039;-87
2023/09/06 07:46:18;;;;;;;7.78;5.38;;;;;;;19.28;100.00;101904.41;4969927;28;20086;-88
2023/09/06 07:48:43;;;;;;;6.60;5.43;;;;;;;19.41;100.00;101900.19;4960016;28;20062;-89
2023/09/06 07:51:09;;;;;;;10.03;5.70;;;;;;;19.55;100.00;101914.66;4966607;28;20027;-87
2023/09/06 07:53:34;;;;;;;7.73;5.50;;;;;;;19.67;100.00;101906.06;4975595;28;20088;-87
2023/09/06 07:56:00;;;;;;;7.43;5.33;;;;;;;19.80;100.00;101902.63;4971768;28;20490;-85
2023/09/06 07:58:26;;;;;;;6.28;5.50;;;;;;;19.80;100.00;101891.75;4973004;28;20489;-88
2023/09/06 08:00:52;;;;;;;6.68;5.53;;;;;;;20.00;100.00;101902.63;4968849;28;20030;-86
2023/09/06 08:03:17;;;;;;;6.07;5.03;;;;;;;20.05;100.00;101905.25;4969924;28;20038;-86
2023/09/06 08:05:43;;;;;;;7.82;5.82;;;;;;;20.16;100.00;101914.91;4993107;28;20034;-86
2023/09/06 08:08:10;;;;;;;7.97;5.10;;;;;;;20.24;100.00;101916.94;4973626;28;20085;-87
2023/09/06 08:10:36;;;;;;;8.82;6.28;;;;;;;20.27;100.00;101912.78;4975510;28;20033;-87
2023/09/06 08:13:03;;;;;;;6.85;6.22;;;;;;;20.39;100.00;101912.31;4972062;28;20030;-87
2023/09/06 08:15:33;;;;;;;8.20;6.03;;;;;;;20.38;100.00;101913.44;4972568;28;20063;-87
2023/09/06 08:18:00;;;;;;;7.22;5.35;;;;;;;20.53;100.00;101925.97;4970828;28;20461;-87
2023/09/06 08:20:25;;;;;;;8.88;6.20;;;;;;;20.66;100.00;101925.19;4972784;28;20477;-87
2023/09/06 08:22:50;;;;;;;9.60;5.53;;;;;;;20.73;100.00;101928.34;4972326;28;20184;-87
2023/09/06 08:25:18;;;;;;;10.80;6.20;;;;;;;20.89;100.00;101928.09;4972626;28;20054;-86
2023/09/06 08:27:43;;;;;;;6.30;5.40;;;;;;;20.93;100.00;101925.56;4972098;28;20597;-87
2023/09/06 08:30:11;;;;;;;6.55;5.75;;;;;;;21.05;100.00;101916.88;4972619;28;20038;-87
2023/09/06 08:32:40;;;;;;;10.23;6.17;;;;;;;21.22;100.00;101924.47;4971987;28;20094;-87
2023/09/06 08:35:07;;;;;;;10.27;6.13;;;;;;;21.27;100.00;101921.63;4972132;28;20647;-86
2023/09/06 08:37:34;;;;;;;7.03;5.47;;;;;;;21.36;100.00;101910.81;4970811;28;20198;-87
2023/09/06 08:39:59;;;;;;;9.35;5.90;;;;;;;21.48;100.00;101917.34;4972753;28;20019;-87
2023/09/06 08:42:27;;;;;;;8.32;6.35;;;;;;;21.56;100.00;101924.00;4972673;28;20050;-87
2023/09/06 08:44:55;;;;;;;11.70;5.80;;;;;;;21.65;100.00;101926.81;4973702;28;20110;-87
2023/09/06 08:47:21;;;;;;;6.93;4.90;;;;;;;21.71;100.00;101909.25;4971554;28;20434;-87
2023/09/06 08:49:47;;;;;;;11.23;4.57;;;;;;;21.79;100.00;101910.44;4971614;28;20046;-86
2023/09/06 08:52:14;;;;;;;5.75;5.00;;;;;;;21.94;100.00;101922.91;4972289;28;20058;-86
2023/09/06 08:54:44;;;;;;;5.22;4.72;;;;;;;22.02;100.00;101913.19;4972565;28;20544;-86
2023/09/06 08:57:10;;;;;;;5.72;4.60;;;;;;;22.08;100.00;101911.97;4971103;28;20030;-87
2023/09/06 08:59:37;;;;;;;5.30;3.80;;;;;;;22.27;100.00;101919.94;4972853;28;20075;-87
2023/09/06 09:02:04;;;;;;;5.47;4.38;;;;;;;22.32;100.00;101911.63;4972124;28;20030;-87
2023/09/06 09:04:29;;;;;;;4.68;3.78;;;;;;;22.45;99.71;101920.91;4972500;28;20027;-86
2023/09/06 09:06:55;;;;;;;5.57;4.00;;;;;;;22.51;98.16;101911.44;4968896;28;20367;-87
2023/09/06 09:09:20;;;;;;;5.20;3.70;;;;;;;22.60;99.50;101916.16;4972900;28;20062;-87
2023/09/06 09:11:50;;;;;;;13.20;3.80;;;;;;;22.71;99.52;101922.94;4974744;28;20034;-87
2023/09/06 09:14:23;;;;;;;8.93;4.40;;;;;;;22.80;99.66;101921.06;4972398;28;20105;-86
2023/09/06 09:16:54;;;;;;;5.03;3.88;;;;;;;22.97;100.00;101924.97;4971221;28;20271;-88
2023/09/06 09:19:21;;;;;;;7.35;3.42;;;;;;;23.09;99.78;101922.44;4974016;28;20027;-85
2023/09/06 09:21:47;;;;;;;9.05;4.15;;;;;;;23.10;98.29;101915.84;4970879;28;20722;-86
2023/09/06 09:24:12;;;;;;;7.17;4.17;;;;;;;23.23;98.78;101914.16;4972699;28;20030;-85
2023/09/06 09:26:41;;;;;;;10.77;3.93;;;;;;;23.34;99.23;101922.03;4969510;28;20393;-85
2023/09/06 09:29:11;;;;;;;6.13;3.97;;;;;;;23.43;97.76;101920.13;4972693;28;20054;-86
2023/09/06 09:31:37;;;;;;;10.02;4.53;;;;;;;23.57;97.41;101920.78;4970837;28;20034;-85
2023/09/06 09:34:02;;;;;;;7.88;4.28;;;;;;;23.69;96.04;101925.63;4972601;28;20023;-86
2023/09/06 09:36:34;;;;;;;10.00;4.17;;;;;;;23.74;94.63;101925.44;4970426;28;20498;-85
2023/09/06 09:39:05;;;;;;;7.85;4.20;;;;;;;23.77;95.66;101918.56;4972100;28;20526;-85
2023/09/06 09:41:31;;;;;;;5.85;3.47;;;;;;;23.85;92.35;101915.00;4969118;28;20100;-86
2023/09/06 09:44:13;;;;;;;4.90;4.30;;;;;;;23.90;94.81;101906.63;4968472;28;20479;-86
2023/09/06 09:46:39;;;;;;;5.68;4.00;;;;;;;23.98;93.60;101917.94;4968342;28;20054;-85
2023/09/06 09:49:07;;;;;;;6.40;4.30;;;;;;;24.17;92.89;101910.19;4962507;28;20136;-85
2023/09/06 09:51:34;;;;;;;4.82;3.80;;;;;;;24.28;92.54;101910.66;4968713;28;20498;-85
2023/09/06 09:54:00;;;;;;;4.53;3.65;;;;;;;24.30;89.61;101913.84;4971881;28;20031;-85
2023/09/06 09:56:28;;;;;;;4.32;3.75;;;;;;;24.45;91.54;101909.00;4968496;28;20457;-85
2023/09/06 09:58:54;;;;;;;8.90;3.80;;;;;;;24.48;88.10;101903.66;4967901;28;20340;-86
2023/09/06 10:01:20;;;;;;;6.47;3.70;;;;;;;24.59;86.80;101911.50;4970779;28;20034;-86
2023/09/06 10:03:49;;;;;;;5.75;3.47;;;;;;;24.69;87.23;101908.41;4966697;28;20031;-86
2023/09/06 10:06:15;;;;;;;4.82;3.70;;;;;;;24.72;84.86;101901.50;4968821;28;20026;-86
2023/09/06 10:08:45;;;;;;;3.78;3.00;;;;;;;24.92;83.30;101911.72;4970935;28;20119;-86
2023/09/06 10:11:11;;;;;;;5.38;3.50;;;;;;;24.94;78.29;101908.63;4970855;28;20026;-85
2023/09/06 10:13:38;;;;;;;4.97;3.50;;;;;;;25.03;79.86;101903.94;4969089;28;20049;-84
2023/09/06 10:16:06;;;;;;;6.07;3.13;;;;;;;25.05;79.74;101906.31;4969351;28;20018;-86
2023/09/06 10:18:32;;;;;;;5.37;2.97;;;;;;;25.14;79.04;101907.09;4973603;28;20552;-86
2023/09/06 10:20:59;;;;;;;3.83;2.87;;;;;;;25.38;74.46;101906.44;4979700;28;20309;-86
2023/09/06 10:23:30;;;;;;;6.60;3.00;;;;;;;25.45;72.80;101900.47;4971069;28;20551;-86
2023/09/06 10:25:58;;;;;;;4.15;2.90;;;;;;;25.53;71.98;101896.84;4968808;28;20117;-87
2023/09/06 10:28:24;;;;;;;7.55;3.30;;;;;;;25.59;72.34;101896.63;4970000;28;20751;-85
2023/09/06 10:30:57;;;;;;;4.70;3.70;;;;;;;25.79;73.01;101897.78;4970973;28;20105;-86
2023/09/06 10:33:42;;;;;;;7.45;3.50;;;;;;;25.98;73.51;101902.75;4969417;28;20034;-86
2023/09/06 10:36:15;;;;;;;4.47;3.30;;;;;;;26.08;71.29;101893.28;4969884;28;20455;-88
2023/09/06 10:38:52;;;;;;;6.53;3.15;;;;;;;26.13;69.67;101898.59;4967478;28;20039;-85
2023/09/06 10:41:19;;;;;;;5.57;3.10;;;;;;;26.19;68.30;101893.69;4969779;28;20038;-85
2023/09/06 10:44:03;;;;;;;8.30;3.50;;;;;;;26.25;69.68;101893.13;4971463;28;20023;-86
2023/09/06 10:46:36;;;;;;;4.60;3.00;;;;;;;26.28;64.21;101886.19;4965979;28;20345;-86
2023/09/06 10:49:23;;;;;;;5.45;3.03;;;;;;;26.40;68.03;101891.69;4959241;28;20035;-85
2023/09/06 10:51:55;;;;;;;4.65;3.10;;;;;;;26.55;64.41;101887.47;4967309;28;20110;-86
2023/09/06 10:54:25;;;;;;;3.85;3.30;;;;;;;26.57;65.71;101887.13;4968584;28;20394;-86
2023/09/06 10:56:57;;;;;;;8.35;3.30;;;;;;;26.65;64.01;101894.47;4970772;28;20027;-85
2023/09/06 10:59:22;;;;;;;3.90;3.00;;;;;;;26.70;61.42;101879.69;4971276;28;20548;-87
2023/09/06 11:02:08;;;;;;;4.33;3.57;;;;;;;26.72;64.74;101883.69;4969055;28;20117;-88
2023/09/06 11:04:34;;;;;;;5.20;3.53;;;;;;;26.87;63.23;101876.72;4957672;28;20043;-88
2023/09/06 11:07:03;;;;;;;5.37;3.60;;;;;;;26.98;60.46;101890.81;4956565;28;20030;-88
2023/09/06 11:09:29;;;;;;;4.93;2.58;;;;;;;27.10;63.14;101886.44;4968499;28;20034;-88
2023/09/06 11:11:55;;;;;;;3.50;3.20;;;;;;;27.20;60.90;101873.00;4970292;28;20034;-89
2023/09/06 11:14:27;;;;;;;3.60;3.10;;;;;;;27.34;60.36;101880.91;4967711;28;20497;-88
2023/09/06 11:16:53;;;;;;;4.70;3.05;;;;;;;27.44;58.57;101873.28;4969399;28;20090;-88
2023/09/06 11:19:27;;;;;;;4.70;3.30;;;;;;;27.55;56.43;101874.44;4970564;28;20035;-89
2023/09/06 11:22:10;;;;;;;4.55;3.17;;;;;;;27.59;55.66;101874.53;4971029;28;20042;-88
2023/09/06 11:24:37;;;;;;;6.28;3.17;;;;;;;27.60;52.94;101874.19;4971707;28;20439;-87
2023/09/06 11:27:37;;;;;;;4.57;3.07;;;;;;;27.71;55.90;101874.47;4967701;28;20043;-88
2023/09/06 11:30:10;;;;;;;8.40;3.00;;;;;;;27.75;53.37;101878.13;4966483;28;20302;-88
2023/09/06 11:32:37;;;;;;;5.13;2.90;;;;;;;27.86;50.13;101872.94;4971270;28;20396;-88
2023/09/06 11:35:08;;;;;;;5.25;3.00;;;;;;;27.99;49.86;101870.91;4971640;28;20022;-87
2023/09/06 11:37:37;;;;;;;4.70;2.97;;;;;;;28.05;49.59;101868.69;4969773;28;20034;-88